sensor_id;sensor_type;location;lat;lon;timestamp;pressure;altitude;pressure_sealevel;temperature;humidity
58467;BME280;44255;49.244;7.726;2023-02-02T04:32:22;99061.53;;;3.04;63.00
58467;BME280;44255;49.244;7.726;2023-02-02T04:34:48;99050.03;;;3.35;62.86
58467;BME280;44255;49.244;7.726;2023-02-02T04:37:13;99042.97;;;3.34;62.69
58467;BME280;44255;49.244;7.726;2023-02-02T04:39:38;99053.63;;;3.34;62.16
58467;BME280;44255;49.244;7.726;2023-02-02T04:42:04;99053.97;;;3.21;62.93
58467;BME280;44255;49.244;7.726;2023-02-02T04:44:29;99065.78;;;3.11;63.04
58467;BME280;44255;49.244;7.726;2023-02-02T04:46:54;99065.34;;;3.27;63.00
58467;BME280;44255;49.244;7.726;2023-02-02T04:49:19;99072.34;;;3.31;63.11
58467;BME280;44255;49.244;7.726;2023-02-02T04:51:45;99072.56;;;3.85;60.90
58467;BME280;44255;49.244;7.726;2023-02-02T04:54:11;99071.06;;;3.76;61.36
58467;BME280;44255;49.244;7.726;2023-02-02T04:56:36;99079.09;;;4.04;60.85
58467;BME280;44255;49.244;7.726;2023-02-02T04:59:02;99083.34;;;3.80;61.07
58467;BME280;44255;49.244;7.726;2023-02-02T05:01:27;99076.97;;;3.86;61.37
58467;BME280;44255;49.244;7.726;2023-02-02T05:03:55;99077.25;;;4.06;60.64
58467;BME280;44255;49.244;7.726;2023-02-02T05:06:20;99067.41;;;4.08;61.06
58467;BME280;44255;49.244;7.726;2023-02-02T05:08:46;99067.59;;;4.02;61.19
58467;BME280;44255;49.244;7.726;2023-02-02T05:11:15;99076.72;;;3.65;61.85
58467;BME280;44255;49.244;7.726;2023-02-02T05:13:48;99083.06;;;3.89;61.73
58467;BME280;44255;49.244;7.726;2023-02-02T05:16:13;99083.00;;;3.92;61.79
58467;BME280;44255;49.244;7.726;2023-02-02T05:18:40;99094.06;;;3.48;63.18
58467;BME280;44255;49.244;7.726;2023-02-02T05:21:05;99097.56;;;3.50;62.56
58467;BME280;44255;49.244;7.726;2023-02-02T05:23:30;99101.56;;;3.65;63.05
58467;BME280;44255;49.244;7.726;2023-02-02T05:25:56;99097.38;;;3.57;62.83
58467;BME280;44255;49.244;7.726;2023-02-02T05:28:21;99102.94;;;3.79;61.91
58467;BME280;44255;49.244;7.726;2023-02-02T05:30:47;99102.09;;;2.80;65.11
58467;BME280;44255;49.244;7.726;2023-02-02T05:33:13;99109.97;;;2.85;66.12
58467;BME280;44255;49.244;7.726;2023-02-02T05:35:38;99107.63;;;3.39;63.63
58467;BME280;44255;49.244;7.726;2023-02-02T05:38:03;99097.91;;;3.98;62.24
58467;BME280;44255;49.244;7.726;2023-02-02T05:40:29;99109.69;;;3.91;61.62
58467;BME280;44255;49.244;7.726;2023-02-02T05:42:54;99108.31;;;3.47;62.91
58467;BME280;44255;49.244;7.726;2023-02-02T05:45:19;99112.41;;;3.59;63.14
58467;BME280;44255;49.244;7.726;2023-02-02T05:47:45;99111.56;;;3.26;64.04
58467;BME280;44255;49.244;7.726;2023-02-02T05:50:10;99108.50;;;3.71;63.03
58467;BME280;44255;49.244;7.726;2023-02-02T05:52:36;99122.53;;;3.46;63.78
58467;BME280;44255;49.244;7.726;2023-02-02T05:55:03;99118.47;;;3.33;64.43
58467;BME280;44255;49.244;7.726;2023-02-02T05:57:29;99114.72;;;3.40;63.67
58467;BME280;44255;49.244;7.726;2023-02-02T05:59:54;99106.41;;;3.83;62.63
58467;BME280;44255;49.244;7.726;2023-02-02T06:02:19;99115.41;;;3.47;63.25
58467;BME280;44255;49.244;7.726;2023-02-02T06:04:45;99116.44;;;3.43;63.21
58467;BME280;44255;49.244;7.726;2023-02-02T06:07:10;99126.19;;;3.42;63.05
58467;BME280;44255;49.244;7.726;2023-02-02T06:09:36;99125.13;;;3.16;64.33
58467;BME280;44255;49.244;7.726;2023-02-02T06:12:01;99122.13;;;3.29;64.05
58467;BME280;44255;49.244;7.726;2023-02-02T06:14:27;99134.53;;;3.30;63.15
58467;BME280;44255;49.244;7.726;2023-02-02T06:16:52;99133.97;;;3.50;63.36
58467;BME280;44255;49.244;7.726;2023-02-02T06:19:17;99141.28;;;3.75;62.28
58467;BME280;44255;49.244;7.726;2023-02-02T06:21:43;99149.72;;;3.59;63.02
58467;BME280;44255;49.244;7.726;2023-02-02T06:24:08;99146.31;;;3.21;63.47
58467;BME280;44255;49.244;7.726;2023-02-02T06:26:33;99153.13;;;3.33;64.03
58467;BME280;44255;49.244;7.726;2023-02-02T06:28:58;99148.91;;;3.24;64.03
58467;BME280;44255;49.244;7.726;2023-02-02T06:31:24;99147.69;;;3.03;64.10
58467;BME280;44255;49.244;7.726;2023-02-02T06:33:54;99142.38;;;3.36;63.63
58467;BME280;44255;49.244;7.726;2023-02-02T06:36:21;99141.53;;;3.01;65.11
58467;BME280;44255;49.244;7.726;2023-02-02T06:38:49;99137.94;;;3.02;64.76
58467;BME280;44255;49.244;7.726;2023-02-02T06:41:15;99130.56;;;3.13;64.33
58467;BME280;44255;49.244;7.726;2023-02-02T06:43:40;99131.38;;;3.48;63.62
58467;BME280;44255;49.244;7.726;2023-02-02T06:46:06;99131.22;;;3.20;64.00
58467;BME280;44255;49.244;7.726;2023-02-02T06:48:31;99129.69;;;3.44;62.94
58467;BME280;44255;49.244;7.726;2023-02-02T06:50:57;99120.97;;;3.06;64.39
58467;BME280;44255;49.244;7.726;2023-02-02T06:53:23;99128.34;;;2.94;65.13
58467;BME280;44255;49.244;7.726;2023-02-02T06:55:53;99153.03;;;3.01;64.21
58467;BME280;44255;49.244;7.726;2023-02-02T06:58:18;99135.47;;;2.94;64.57
58467;BME280;44255;49.244;7.726;2023-02-02T07:00:43;99141.47;;;3.35;63.10
58467;BME280;44255;49.244;7.726;2023-02-02T07:03:08;99137.63;;;2.78;64.61
58467;BME280;44255;49.244;7.726;2023-02-02T07:05:34;99145.03;;;2.66;65.51
58467;BME280;44255;49.244;7.726;2023-02-02T07:07:59;99136.16;;;3.35;63.41
58467;BME280;44255;49.244;7.726;2023-02-02T07:10:24;99127.66;;;2.88;64.50
58467;BME280;44255;49.244;7.726;2023-02-02T07:12:52;99133.44;;;3.04;64.49
58467;BME280;44255;49.244;7.726;2023-02-02T07:15:18;99164.03;;;2.89;64.16
58467;BME280;44255;49.244;7.726;2023-02-02T07:17:43;99141.47;;;3.02;63.50
58467;BME280;44255;49.244;7.726;2023-02-02T07:20:09;99136.22;;;2.99;63.61
58467;BME280;44255;49.244;7.726;2023-02-02T07:22:37;99119.22;;;3.38;62.83
58467;BME280;44255;49.244;7.726;2023-02-02T07:25:02;99118.84;;;3.82;61.43
58467;BME280;44255;49.244;7.726;2023-02-02T07:27:28;99137.34;;;2.90;64.12
58467;BME280;44255;49.244;7.726;2023-02-02T07:29:53;99136.72;;;3.14;63.39
58467;BME280;44255;49.244;7.726;2023-02-02T07:32:18;99140.53;;;3.38;62.68
58467;BME280;44255;49.244;7.726;2023-02-02T07:34:43;99130.47;;;3.48;62.33
58467;BME280;44255;49.244;7.726;2023-02-02T07:37:09;99121.72;;;3.74;61.22
58467;BME280;44255;49.244;7.726;2023-02-02T07:39:34;99129.34;;;3.57;61.77
58467;BME280;44255;49.244;7.726;2023-02-02T07:41:59;99130.28;;;3.56;61.44
58467;BME280;44255;49.244;7.726;2023-02-02T07:44:25;99127.38;;;3.63;61.99
58467;BME280;44255;49.244;7.726;2023-02-02T07:46:50;99143.16;;;3.40;61.69
58467;BME280;44255;49.244;7.726;2023-02-02T07:49:16;99141.25;;;3.43;61.47
58467;BME280;44255;49.244;7.726;2023-02-02T07:51:42;99143.69;;;3.52;61.75
58467;BME280;44255;49.244;7.726;2023-02-02T07:54:08;99146.47;;;3.79;61.15
58467;BME280;44255;49.244;7.726;2023-02-02T07:56:34;99157.66;;;3.61;61.15
58467;BME280;44255;49.244;7.726;2023-02-02T07:58:59;99156.50;;;3.38;61.66
58467;BME280;44255;49.244;7.726;2023-02-02T08:01:26;99157.25;;;3.43;62.41
58467;BME280;44255;49.244;7.726;2023-02-02T08:03:53;99167.16;;;3.71;61.30
58467;BME280;44255;49.244;7.726;2023-02-02T08:06:25;99178.53;;;3.76;61.52
58467;BME280;44255;49.244;7.726;2023-02-02T08:08:52;99189.59;;;3.29;61.88
58467;BME280;44255;49.244;7.726;2023-02-02T08:11:19;99188.66;;;3.65;61.18
58467;BME280;44255;49.244;7.726;2023-02-02T08:13:49;99187.78;;;2.97;62.82
58467;BME280;44255;49.244;7.726;2023-02-02T08:16:15;99196.66;;;3.32;62.25
58467;BME280;44255;49.244;7.726;2023-02-02T08:18:40;99185.44;;;3.19;62.96
58467;BME280;44255;49.244;7.726;2023-02-02T08:21:07;99190.78;;;3.52;62.03
58467;BME280;44255;49.244;7.726;2023-02-02T08:23:33;99206.03;;;3.45;61.77
58467;BME280;44255;49.244;7.726;2023-02-02T08:28:30;99203.25;;;3.50;62.27
58467;BME280;44255;49.244;7.726;2023-02-02T08:30:55;99212.28;;;3.77;61.20
58467;BME280;44255;49.244;7.726;2023-02-02T08:33:20;99201.84;;;3.36;62.24
58467;BME280;44255;49.244;7.726;2023-02-02T08:35:45;99200.09;;;3.35;62.63
58467;BME280;44255;49.244;7.726;2023-02-02T08:38:11;99211.66;;;3.00;62.83
58467;BME280;44255;49.244;7.726;2023-02-02T08:40:37;99218.94;;;3.28;62.49
58467;BME280;44255;49.244;7.726;2023-02-02T08:43:02;99208.16;;;3.32;61.74
58467;BME280;44255;49.244;7.726;2023-02-02T08:45:28;99215.22;;;4.00;60.62
58467;BME280;44255;49.244;7.726;2023-02-02T08:47:53;99219.56;;;3.72;60.97
58467;BME280;44255;49.244;7.726;2023-02-02T08:50:18;99213.50;;;3.65;60.61
58467;BME280;44255;49.244;7.726;2023-02-02T08:52:44;99214.22;;;3.72;60.45
58467;BME280;44255;49.244;7.726;2023-02-02T08:55:09;99211.97;;;3.57;61.05
58467;BME280;44255;49.244;7.726;2023-02-02T08:57:34;99226.34;;;3.51;61.23
58467;BME280;44255;49.244;7.726;2023-02-02T08:59:59;99234.84;;;3.65;60.21
58467;BME280;44255;49.244;7.726;2023-02-02T09:02:25;99228.16;;;3.82;60.15
58467;BME280;44255;49.244;7.726;2023-02-02T09:04:50;99221.22;;;3.43;60.64
58467;BME280;44255;49.244;7.726;2023-02-02T09:07:15;99217.69;;;4.09;59.40
58467;BME280;44255;49.244;7.726;2023-02-02T09:09:40;99226.22;;;3.56;60.26
58467;BME280;44255;49.244;7.726;2023-02-02T09:12:06;99218.44;;;3.46;61.39
58467;BME280;44255;49.244;7.726;2023-02-02T09:14:31;99216.41;;;3.23;62.39
58467;BME280;44255;49.244;7.726;2023-02-02T09:16:56;99216.81;;;3.07;63.54
58467;BME280;44255;49.244;7.726;2023-02-02T09:19:22;99228.22;;;2.75;64.72
58467;BME280;44255;49.244;7.726;2023-02-02T09:21:50;99232.72;;;3.09;64.73
58467;BME280;44255;49.244;7.726;2023-02-02T09:24:15;99234.38;;;3.83;61.82
58467;BME280;44255;49.244;7.726;2023-02-02T09:26:42;99241.25;;;4.23;60.42
58467;BME280;44255;49.244;7.726;2023-02-02T09:29:11;99237.53;;;3.31;62.41
58467;BME280;44255;49.244;7.726;2023-02-02T09:31:37;99237.66;;;3.26;63.01
58467;BME280;44255;49.244;7.726;2023-02-02T09:34:07;99218.88;;;3.64;61.65
58467;BME280;44255;49.244;7.726;2023-02-02T09:36:33;99233.25;;;3.23;61.77
58467;BME280;44255;49.244;7.726;2023-02-02T09:38:58;99231.91;;;3.07;62.95
58467;BME280;44255;49.244;7.726;2023-02-02T09:44:13;99223.16;;;4.03;60.04
58467;BME280;44255;49.244;7.726;2023-02-02T09:46:51;99228.47;;;3.71;60.45
58467;BME280;44255;49.244;7.726;2023-02-02T09:49:26;99231.94;;;3.75;60.62
58467;BME280;44255;49.244;7.726;2023-02-02T09:51:58;99247.09;;;3.73;60.91
58467;BME280;44255;49.244;7.726;2023-02-02T09:54:34;99253.09;;;3.46;60.98
58467;BME280;44255;49.244;7.726;2023-02-02T09:57:04;99251.59;;;4.35;59.06
58467;BME280;44255;49.244;7.726;2023-02-02T09:59:36;99258.94;;;3.61;60.41
58467;BME280;44255;49.244;7.726;2023-02-02T10:02:09;99252.22;;;3.47;61.03
58467;BME280;44255;49.244;7.726;2023-02-02T10:04:42;99243.56;;;3.71;60.54
58467;BME280;44255;49.244;7.726;2023-02-02T10:07:16;99246.72;;;3.87;59.59
58467;BME280;44255;49.244;7.726;2023-02-02T10:10:22;99247.88;;;3.76;59.15
58467;BME280;44255;49.244;7.726;2023-02-02T10:13:03;99252.63;;;3.65;59.67
58467;BME280;44255;49.244;7.726;2023-02-02T10:18:18;99268.94;;;3.52;60.03
58467;BME280;44255;49.244;7.726;2023-02-02T10:20:50;99269.16;;;3.45;60.82
58467;BME280;44255;49.244;7.726;2023-02-02T10:28:52;99282.78;;;4.00;59.67
58467;BME280;44255;49.244;7.726;2023-02-02T10:45:30;99265.16;;;4.28;58.23
58467;BME280;44255;49.244;7.726;2023-02-02T10:47:56;99267.94;;;3.90;58.78
58467;BME280;44255;49.244;7.726;2023-02-02T10:50:21;99265.69;;;4.39;57.88
58467;BME280;44255;49.244;7.726;2023-02-02T10:52:55;99272.56;;;4.18;58.77
58467;BME280;44255;49.244;7.726;2023-02-02T10:55:36;99266.63;;;4.06;59.09
58467;BME280;44255;49.244;7.726;2023-02-02T10:58:21;99278.31;;;4.01;58.59
58467;BME280;44255;49.244;7.726;2023-02-02T11:00:54;99282.22;;;3.89;59.14
58467;BME280;44255;49.244;7.726;2023-02-02T11:03:22;99285.72;;;4.22;57.79
58467;BME280;44255;49.244;7.726;2023-02-02T11:05:49;99293.41;;;4.03;58.41
58467;BME280;44255;49.244;7.726;2023-02-02T11:08:45;99282.91;;;3.62;59.42
58467;BME280;44255;49.244;7.726;2023-02-02T11:11:27;99281.91;;;4.33;58.07
58467;BME280;44255;49.244;7.726;2023-02-02T11:14:00;99294.72;;;3.87;58.73
58467;BME280;44255;49.244;7.726;2023-02-02T11:16:29;99280.13;;;3.67;59.41
58467;BME280;44255;49.244;7.726;2023-02-02T11:18:54;99284.56;;;4.00;58.37
58467;BME280;44255;49.244;7.726;2023-02-02T11:21:27;99277.78;;;3.55;60.65
58467;BME280;44255;49.244;7.726;2023-02-02T11:27:06;99288.56;;;3.50;60.10
58467;BME280;44255;49.244;7.726;2023-02-02T11:29:43;99284.22;;;3.46;60.46
58467;BME280;44255;49.244;7.726;2023-02-02T11:32:30;99295.16;;;3.70;60.39
58467;BME280;44255;49.244;7.726;2023-02-02T11:37:28;99273.59;;;3.44;61.77
58467;BME280;44255;49.244;7.726;2023-02-02T11:39:53;99270.59;;;3.58;62.05
58467;BME280;44255;49.244;7.726;2023-02-02T11:42:21;99263.63;;;3.86;60.58
58467;BME280;44255;49.244;7.726;2023-02-02T11:44:52;99257.91;;;4.01;59.87
58467;BME280;44255;49.244;7.726;2023-02-02T11:47:27;99265.63;;;3.77;60.12
58467;BME280;44255;49.244;7.726;2023-02-02T11:49:55;99260.69;;;4.28;59.17
58467;BME280;44255;49.244;7.726;2023-02-02T11:52:23;99256.84;;;4.37;58.97
58467;BME280;44255;49.244;7.726;2023-02-02T11:54:52;99263.13;;;3.71;60.22
58467;BME280;44255;49.244;7.726;2023-02-02T11:57:23;99259.72;;;3.99;60.64
58467;BME280;44255;49.244;7.726;2023-02-02T11:59:51;99261.69;;;3.58;61.04
58467;BME280;44255;49.244;7.726;2023-02-02T12:02:30;99259.56;;;3.71;60.58
58467;BME280;44255;49.244;7.726;2023-02-02T12:07:41;99264.94;;;3.36;60.95
58467;BME280;44255;49.244;7.726;2023-02-02T12:10:17;99270.59;;;3.57;60.94
58467;BME280;44255;49.244;7.726;2023-02-02T12:12:52;99258.50;;;4.11;59.22
58467;BME280;44255;49.244;7.726;2023-02-02T12:15:31;99272.56;;;3.83;59.96
58467;BME280;44255;49.244;7.726;2023-02-02T12:18:22;99265.06;;;3.66;59.82
58467;BME280;44255;49.244;7.726;2023-02-02T12:21:06;99264.28;;;3.61;60.41
58467;BME280;44255;49.244;7.726;2023-02-02T12:26:13;99272.50;;;4.19;58.64
58467;BME280;44255;49.244;7.726;2023-02-02T12:28:48;99282.84;;;3.97;59.09
58467;BME280;44255;49.244;7.726;2023-02-02T12:36:42;99276.81;;;4.23;58.10
58467;BME280;44255;49.244;7.726;2023-02-02T12:54:12;99245.25;;;4.38;57.15
58467;BME280;44255;49.244;7.726;2023-02-02T12:57:09;99271.88;;;4.09;57.36
58467;BME280;44255;49.244;7.726;2023-02-02T12:59:59;99269.69;;;4.24;57.00
58467;BME280;44255;49.244;7.726;2023-02-02T13:02:33;99248.13;;;4.62;56.92
58467;BME280;44255;49.244;7.726;2023-02-02T13:05:26;99256.88;;;4.05;57.07
58467;BME280;44255;49.244;7.726;2023-02-02T13:10:33;99241.78;;;4.36;56.78
58467;BME280;44255;49.244;7.726;2023-02-02T13:13:07;99246.50;;;3.94;57.47
58467;BME280;44255;49.244;7.726;2023-02-02T13:15:38;99241.06;;;3.98;57.05
58467;BME280;44255;49.244;7.726;2023-02-02T13:18:24;99232.16;;;4.30;56.43
58467;BME280;44255;49.244;7.726;2023-02-02T13:20:54;99248.88;;;4.65;55.74
58467;BME280;44255;49.244;7.726;2023-02-02T13:23:31;99261.06;;;4.16;56.67
58467;BME280;44255;49.244;7.726;2023-02-02T13:26:15;99246.66;;;4.51;55.95
58467;BME280;44255;49.244;7.726;2023-02-02T13:31:47;99262.44;;;3.96;57.95
58467;BME280;44255;49.244;7.726;2023-02-02T13:34:24;99252.31;;;4.98;55.47
58467;BME280;44255;49.244;7.726;2023-02-02T13:36:58;99254.97;;;4.41;56.49
58467;BME280;44255;49.244;7.726;2023-02-02T13:39:35;99254.22;;;4.65;55.77
58467;BME280;44255;49.244;7.726;2023-02-02T13:42:04;99243.84;;;4.56;56.45
58467;BME280;44255;49.244;7.726;2023-02-02T13:44:45;99259.31;;;4.73;55.33
58467;BME280;44255;49.244;7.726;2023-02-02T13:47:20;99254.97;;;4.41;56.18
58467;BME280;44255;49.244;7.726;2023-02-02T13:49:54;99257.34;;;4.80;54.67
58467;BME280;44255;49.244;7.726;2023-02-02T13:52:44;99256.16;;;4.30;56.41
58467;BME280;44255;49.244;7.726;2023-02-02T13:55:36;99258.19;;;4.22;56.84
58467;BME280;44255;49.244;7.726;2023-02-02T14:00:54;99249.91;;;4.31;56.59
58467;BME280;44255;49.244;7.726;2023-02-02T14:03:36;99260.50;;;4.03;57.17
58467;BME280;44255;49.244;7.726;2023-02-02T14:08:33;99258.66;;;4.36;56.33
58467;BME280;44255;49.244;7.726;2023-02-02T14:11:01;99264.97;;;4.64;55.93
58467;BME280;44255;49.244;7.726;2023-02-02T14:13:42;99268.22;;;4.74;55.69
58467;BME280;44255;49.244;7.726;2023-02-02T14:19:00;99247.19;;;4.63;55.52
58467;BME280;44255;49.244;7.726;2023-02-02T14:31:58;99272.75;;;4.72;55.86
58467;BME280;44255;49.244;7.726;2023-02-02T14:37:12;99271.09;;;4.68;55.98
58467;BME280;44255;49.244;7.726;2023-02-02T14:45:28;99290.03;;;4.28;56.54
58467;BME280;44255;49.244;7.726;2023-02-02T14:47:56;99304.88;;;4.38;56.43
58467;BME280;44255;49.244;7.726;2023-02-02T14:50:40;99307.44;;;5.02;55.33
58467;BME280;44255;49.244;7.726;2023-02-02T14:53:29;99302.75;;;5.08;54.82
58467;BME280;44255;49.244;7.726;2023-02-02T14:55:59;99322.78;;;4.02;57.56
58467;BME280;44255;49.244;7.726;2023-02-02T14:58:35;99316.28;;;4.74;55.80
58467;BME280;44255;49.244;7.726;2023-02-02T15:01:12;99324.75;;;4.58;56.27
58467;BME280;44255;49.244;7.726;2023-02-02T15:06:37;99333.91;;;5.09;54.98
58467;BME280;44255;49.244;7.726;2023-02-02T15:17:32;99340.09;;;4.82;56.09
58467;BME280;44255;49.244;7.726;2023-02-02T15:20:07;99349.41;;;4.36;57.63
58467;BME280;44255;49.244;7.726;2023-02-02T15:22:42;99364.00;;;4.23;57.53
58467;BME280;44255;49.244;7.726;2023-02-02T15:27:49;99357.19;;;4.44;57.34
58467;BME280;44255;49.244;7.726;2023-02-02T15:30:16;99363.38;;;4.46;57.74
58467;BME280;44255;49.244;7.726;2023-02-02T15:32:42;99362.25;;;4.85;56.83
58467;BME280;44255;49.244;7.726;2023-02-02T15:35:16;99373.31;;;4.41;57.43
58467;BME280;44255;49.244;7.726;2023-02-02T15:37:47;99375.22;;;4.36;57.42
58467;BME280;44255;49.244;7.726;2023-02-02T15:40:20;99380.75;;;3.93;59.32
58467;BME280;44255;49.244;7.726;2023-02-02T15:42:51;99376.00;;;4.06;59.37
58467;BME280;44255;49.244;7.726;2023-02-02T15:47:52;99400.84;;;4.08;59.94
58467;BME280;44255;49.244;7.726;2023-02-02T15:50:19;99391.94;;;4.43;59.00
58467;BME280;44255;49.244;7.726;2023-02-02T15:52:49;99395.19;;;4.54;59.66
58467;BME280;44255;49.244;7.726;2023-02-02T15:55:30;99412.97;;;4.20;61.02
58467;BME280;44255;49.244;7.726;2023-02-02T15:57:56;99426.81;;;4.02;62.07
58467;BME280;44255;49.244;7.726;2023-02-02T16:00:33;99410.31;;;4.54;61.06
58467;BME280;44255;49.244;7.726;2023-02-02T16:03:13;99419.56;;;4.07;61.59
58467;BME280;44255;49.244;7.726;2023-02-02T16:05:42;99419.31;;;3.80;63.49
58467;BME280;44255;49.244;7.726;2023-02-02T16:08:23;99422.78;;;4.20;62.06
58467;BME280;44255;49.244;7.726;2023-02-02T16:11:00;99439.00;;;4.12;61.96
58467;BME280;44255;49.244;7.726;2023-02-02T16:13:27;99440.06;;;3.67;62.52
58467;BME280;44255;49.244;7.726;2023-02-02T16:15:58;99452.56;;;3.26;64.59
58467;BME280;44255;49.244;7.726;2023-02-02T16:18:23;99451.50;;;3.72;63.09
58467;BME280;44255;49.244;7.726;2023-02-02T16:20:50;99457.59;;;3.40;63.79
58467;BME280;44255;49.244;7.726;2023-02-02T16:23:30;99455.50;;;3.52;65.02
58467;BME280;44255;49.244;7.726;2023-02-02T16:25:58;99451.75;;;3.61;64.27
58467;BME280;44255;49.244;7.726;2023-02-02T16:28:25;99452.44;;;4.07;62.45
58467;BME280;44255;49.244;7.726;2023-02-02T16:30:51;99472.53;;;3.45;63.87
58467;BME280;44255;49.244;7.726;2023-02-02T16:33:40;99472.88;;;4.08;62.79
58467;BME280;44255;49.244;7.726;2023-02-02T16:38:44;99467.59;;;3.67;63.14
58467;BME280;44255;49.244;7.726;2023-02-02T16:43:49;99473.31;;;3.88;64.16
58467;BME280;44255;49.244;7.726;2023-02-02T16:46:15;99482.69;;;4.43;62.11
58467;BME280;44255;49.244;7.726;2023-02-02T16:48:58;99483.69;;;4.01;62.85
58467;BME280;44255;49.244;7.726;2023-02-02T16:51:28;99478.00;;;4.16;62.95
58467;BME280;44255;49.244;7.726;2023-02-02T16:54:00;99493.31;;;3.70;63.63
58467;BME280;44255;49.244;7.726;2023-02-02T16:56:37;99510.00;;;3.39;64.51
58467;BME280;44255;49.244;7.726;2023-02-02T16:59:06;99489.50;;;3.80;63.74
58467;BME280;44255;49.244;7.726;2023-02-02T17:01:40;99497.03;;;4.02;62.94
58467;BME280;44255;49.244;7.726;2023-02-02T17:04:25;99498.56;;;3.73;62.89
58467;BME280;44255;49.244;7.726;2023-02-02T17:06:52;99492.28;;;4.15;62.85
58467;BME280;44255;49.244;7.726;2023-02-02T17:12:30;99494.31;;;4.40;62.08
58467;BME280;44255;49.244;7.726;2023-02-02T17:14:53;99505.75;;;4.45;61.18
58467;BME280;44255;49.244;7.726;2023-02-02T17:17:18;99520.78;;;3.74;62.30
58467;BME280;44255;49.244;7.726;2023-02-02T17:19:44;99520.41;;;3.51;63.55
58467;BME280;44255;49.244;7.726;2023-02-02T17:22:12;99524.31;;;3.76;63.33
58467;BME280;44255;49.244;7.726;2023-02-02T17:24:40;99524.78;;;3.10;65.70
58467;BME280;44255;49.244;7.726;2023-02-02T17:27:12;99523.81;;;3.57;64.56
58467;BME280;44255;49.244;7.726;2023-02-02T17:29:38;99520.41;;;3.50;64.62
58467;BME280;44255;49.244;7.726;2023-02-02T17:32:04;99525.97;;;3.39;64.73
58467;BME280;44255;49.244;7.726;2023-02-02T17:34:29;99528.91;;;3.67;64.54
58467;BME280;44255;49.244;7.726;2023-02-02T17:36:55;99529.66;;;3.74;64.86
58467;BME280;44255;49.244;7.726;2023-02-02T17:39:20;99540.13;;;3.43;65.05
58467;BME280;44255;49.244;7.726;2023-02-02T17:41:46;99538.97;;;3.55;64.89
58467;BME280;44255;49.244;7.726;2023-02-02T17:44:12;99536.53;;;3.85;64.35
58467;BME280;44255;49.244;7.726;2023-02-02T17:46:37;99532.16;;;3.80;63.53
58467;BME280;44255;49.244;7.726;2023-02-02T17:49:03;99525.13;;;3.38;66.15
58467;BME280;44255;49.244;7.726;2023-02-02T17:51:28;99528.03;;;4.08;63.83
58467;BME280;44255;49.244;7.726;2023-02-02T17:53:54;99541.56;;;3.58;64.22
58467;BME280;44255;49.244;7.726;2023-02-02T17:56:24;99535.41;;;3.56;64.88
58467;BME280;44255;49.244;7.726;2023-02-02T17:58:49;99542.16;;;3.72;63.97
58467;BME280;44255;49.244;7.726;2023-02-02T18:01:14;99537.84;;;3.24;64.43
58467;BME280;44255;49.244;7.726;2023-02-02T18:03:42;99540.31;;;3.76;64.51
58467;BME280;44255;49.244;7.726;2023-02-02T18:06:09;99548.97;;;3.84;63.81
58467;BME280;44255;49.244;7.726;2023-02-02T18:08:35;99544.06;;;4.06;62.98
58467;BME280;44255;49.244;7.726;2023-02-02T18:11:00;99547.91;;;3.52;63.88
58467;BME280;44255;49.244;7.726;2023-02-02T18:13:26;99553.06;;;3.61;64.53
58467;BME280;44255;49.244;7.726;2023-02-02T18:15:52;99545.75;;;4.11;62.32
58467;BME280;44255;49.244;7.726;2023-02-02T18:18:17;99570.44;;;3.37;63.29
58467;BME280;44255;49.244;7.726;2023-02-02T18:20:44;99557.97;;;3.39;63.97
58467;BME280;44255;49.244;7.726;2023-02-02T18:23:11;99559.97;;;3.28;64.29
58467;BME280;44255;49.244;7.726;2023-02-02T18:25:37;99559.47;;;3.52;64.19
58467;BME280;44255;49.244;7.726;2023-02-02T18:28:03;99558.72;;;3.02;64.58
58467;BME280;44255;49.244;7.726;2023-02-02T18:30:28;99553.91;;;3.63;62.53
58467;BME280;44255;49.244;7.726;2023-02-02T18:32:54;99558.97;;;3.33;63.19
58467;BME280;44255;49.244;7.726;2023-02-02T18:35:19;99556.88;;;3.89;62.45
58467;BME280;44255;49.244;7.726;2023-02-02T18:37:45;99555.28;;;3.81;62.29
58467;BME280;44255;49.244;7.726;2023-02-02T18:40:11;99538.84;;;4.38;60.01
58467;BME280;44255;49.244;7.726;2023-02-02T18:42:36;99542.69;;;4.26;60.98
58467;BME280;44255;49.244;7.726;2023-02-02T18:45:03;99538.56;;;4.13;60.85
58467;BME280;44255;49.244;7.726;2023-02-02T18:47:29;99555.22;;;3.42;62.83
58467;BME280;44255;49.244;7.726;2023-02-02T18:49:54;99556.81;;;3.51;62.19
58467;BME280;44255;49.244;7.726;2023-02-02T18:52:20;99562.44;;;3.37;62.64
58467;BME280;44255;49.244;7.726;2023-02-02T18:54:46;99559.31;;;3.60;61.79
58467;BME280;44255;49.244;7.726;2023-02-02T18:57:12;99544.38;;;3.51;62.18
58467;BME280;44255;49.244;7.726;2023-02-02T18:59:38;99554.53;;;3.75;61.07
58467;BME280;44255;49.244;7.726;2023-02-02T19:02:03;99565.00;;;2.98;63.18
58467;BME280;44255;49.244;7.726;2023-02-02T19:04:29;99565.88;;;3.42;62.29
58467;BME280;44255;49.244;7.726;2023-02-02T19:06:54;99557.06;;;3.40;62.26
58467;BME280;44255;49.244;7.726;2023-02-02T19:09:38;99557.41;;;3.64;62.05
58467;BME280;44255;49.244;7.726;2023-02-02T19:12:10;99558.91;;;3.77;60.71
58467;BME280;44255;49.244;7.726;2023-02-02T19:14:36;99538.53;;;4.14;60.24
58467;BME280;44255;49.244;7.726;2023-02-02T19:17:21;99533.50;;;4.02;60.04
58467;BME280;44255;49.244;7.726;2023-02-02T19:19:48;99534.97;;;4.15;59.40
58467;BME280;44255;49.244;7.726;2023-02-02T19:22:19;99540.72;;;3.95;60.82
58467;BME280;44255;49.244;7.726;2023-02-02T19:24:45;99530.53;;;4.14;58.98
58467;BME280;44255;49.244;7.726;2023-02-02T19:29:42;99552.63;;;4.21;58.80
58467;BME280;44255;49.244;7.726;2023-02-02T19:32:12;99553.38;;;3.87;59.61
58467;BME280;44255;49.244;7.726;2023-02-02T19:34:38;99554.66;;;3.69;59.38
58467;BME280;44255;49.244;7.726;2023-02-02T19:37:23;99548.31;;;4.14;59.48
58467;BME280;44255;49.244;7.726;2023-02-02T19:39:53;99556.38;;;4.12;58.96
58467;BME280;44255;49.244;7.726;2023-02-02T19:42:18;99562.72;;;3.65;59.82
58467;BME280;44255;49.244;7.726;2023-02-02T19:44:43;99560.38;;;3.07;61.35
58467;BME280;44255;49.244;7.726;2023-02-02T19:47:23;99567.22;;;3.63;59.86
58467;BME280;44255;49.244;7.726;2023-02-02T19:49:50;99546.97;;;3.94;59.85
58467;BME280;44255;49.244;7.726;2023-02-02T19:52:21;99551.06;;;4.11;58.72